createdAt,value
2022-09-06T00:01:17.141Z,100744.53
2022-09-06T00:03:45.628Z,100744.94
2022-09-06T00:06:19.163Z,100755.47
2022-09-06T00:08:48.003Z,100758.59
2022-09-06T00:11:17.052Z,100738.88
2022-09-06T00:13:44.538Z,100742.56
2022-09-06T00:16:29.714Z,100747.88
2022-09-06T00:18:57.931Z,100743.34
2022-09-06T00:21:27.699Z,100747.03
2022-09-06T00:23:55.625Z,100740.91
2022-09-06T00:26:23.489Z,100738.78
2022-09-06T00:28:50.802Z,100741.41
2022-09-06T00:31:21.130Z,100735.47
2022-09-06T00:33:48.495Z,100738.25
2022-09-06T00:36:16.023Z,100732.94
2022-09-06T00:38:43.449Z,100725.16
2022-09-06T00:41:13.550Z,100734.59
2022-09-06T00:43:42.269Z,100743.19
2022-09-06T00:46:14.570Z,100728.44
2022-09-06T00:48:43.414Z,100745.78
2022-09-06T00:51:13.319Z,100744.56
2022-09-06T00:53:40.630Z,100729.75
2022-09-06T00:56:08.135Z,100731.03
2022-09-06T00:58:35.957Z,100732.16
2022-09-06T01:01:03.312Z,100720.03
2022-09-06T01:03:30.541Z,100732.53
2022-09-06T01:06:04.049Z,100737.81
2022-09-06T01:08:49.587Z,100733.47
2022-09-06T01:11:25.823Z,100735.88
2022-09-06T01:14:27.250Z,100730.75
2022-09-06T01:17:26.140Z,100740.47
2022-09-06T01:20:24.868Z,100738.63
2022-09-06T01:23:16.532Z,100758.78
2022-09-06T01:26:28.069Z,100764.03
2022-09-06T01:28:55.876Z,100769.44
2022-09-06T01:31:26.196Z,100764.44
2022-09-06T01:34:08.699Z,100757.81
2022-09-06T01:36:59.986Z,100755.22
2022-09-06T01:39:33.865Z,100758.66
2022-09-06T01:42:10.430Z,100773.75
2022-09-06T01:44:39.696Z,100769.88
2022-09-06T01:47:22.501Z,100770.72
2022-09-06T01:50:20.886Z,100777.31
2022-09-06T01:53:22.504Z,100773.28
2022-09-06T01:56:16.057Z,100764.50
2022-09-06T01:59:16.287Z,100765.72
2022-09-06T02:01:46.660Z,100761.97
2022-09-06T02:04:36.984Z,100768.53
2022-09-06T02:07:14.374Z,100750.63
2022-09-06T02:09:47.161Z,100765.47
2022-09-06T02:12:17.841Z,100768.38
2022-09-06T02:15:07.357Z,100781.50
2022-09-06T02:17:40.175Z,100771.59
2022-09-06T02:20:12.926Z,100780.09
2022-09-06T02:22:44.221Z,100779.69
2022-09-06T02:25:19.256Z,100786.66
2022-09-06T02:27:46.798Z,100780.50
2022-09-06T02:30:14.365Z,100786.53
2022-09-06T02:32:50.715Z,100781.03
2022-09-06T02:35:18.272Z,100778.25
2022-09-06T02:37:45.681Z,100774.31
2022-09-06T02:40:13.213Z,100780.97
2022-09-06T02:42:42.054Z,100783.66
2022-09-06T02:45:09.671Z,100780.03
2022-09-06T02:47:36.976Z,100780.13
2022-09-06T02:50:04.453Z,100784.38
2022-09-06T02:52:31.919Z,100792.47
2022-09-06T02:54:59.023Z,100791.13
2022-09-06T02:57:26.314Z,100800.25
2022-09-06T02:59:53.592Z,100804.38
2022-09-06T03:02:20.796Z,100807.72
2022-09-06T03:04:48.060Z,100801.28
2022-09-06T03:07:15.263Z,100806.28
2022-09-06T03:09:42.644Z,100815.59
2022-09-06T03:12:10.016Z,100819.44
2022-09-06T03:14:37.695Z,100815.72
2022-09-06T03:17:05.335Z,100800.63
2022-09-06T03:19:32.823Z,100823.16
2022-09-06T03:22:00.122Z,100830.31
2022-09-06T03:24:27.335Z,100821.41
2022-09-06T03:26:54.839Z,100831.78
2022-09-06T03:29:22.181Z,100824.28
2022-09-06T03:31:49.586Z,100825.44
2022-09-06T03:34:16.810Z,100820.06
2022-09-06T03:36:44.206Z,100815.59
2022-09-06T03:39:11.367Z,100823.56
2022-09-06T03:41:38.534Z,100833.84
2022-09-06T03:44:05.809Z,100838.53
2022-09-06T03:46:33.085Z,100826.63
2022-09-06T03:49:02.075Z,100824.31
2022-09-06T03:51:29.409Z,100828.06
2022-09-06T03:53:57.889Z,100828.38
2022-09-06T03:56:25.037Z,100845.09
2022-09-06T03:58:52.236Z,100845.91
2022-09-06T04:01:20.282Z,100839.78
2022-09-06T04:03:47.574Z,100838.97
2022-09-06T04:06:14.970Z,100841.75
2022-09-06T04:08:42.354Z,100824.63
2022-09-06T04:11:09.688Z,100832.94
2022-09-06T04:13:37.097Z,100840.94
2022-09-06T04:16:05.628Z,100842.59
2022-09-06T04:18:33.121Z,100849.25
2022-09-06T04:21:00.450Z,100838.66
2022-09-06T04:23:29.149Z,100840.94
2022-09-06T04:25:58.339Z,100851.94
2022-09-06T04:28:27.012Z,100848.72
2022-09-06T04:31:04.638Z,100852.03
2022-09-06T04:33:34.988Z,100846.97
2022-09-06T04:36:04.686Z,100845.91
2022-09-06T04:38:36.054Z,100851.19
2022-09-06T04:41:04.489Z,100855.75
2022-09-06T04:43:31.925Z,100843.53
2022-09-06T04:46:06.848Z,100850.66
2022-09-06T04:48:35.403Z,100827.22
2022-09-06T04:51:02.930Z,100842.97
2022-09-06T04:53:30.079Z,100837.97
2022-09-06T04:55:58.267Z,100849.16
2022-09-06T04:58:26.277Z,100849.31
2022-09-06T05:00:53.977Z,100850.31
2022-09-06T05:03:21.252Z,100848.66
2022-09-06T05:05:48.636Z,100858.19
2022-09-06T05:08:16.240Z,100861.94
2022-09-06T05:10:43.511Z,100825.94
2022-09-06T05:13:10.628Z,100844.47
2022-09-06T05:15:38.513Z,100845.94
2022-09-06T05:18:06.933Z,100833.72
2022-09-06T05:20:34.347Z,100824.13
2022-09-06T05:23:01.953Z,100823.31
2022-09-06T05:25:29.249Z,100837.50
2022-09-06T05:27:56.493Z,100823.81
2022-09-06T05:30:23.696Z,100831.38
2022-09-06T05:32:51.468Z,100833.69
2022-09-06T05:35:18.737Z,100828.47
2022-09-06T05:37:45.922Z,100834.31
2022-09-06T05:40:13.103Z,100817.28
2022-09-06T05:42:41.220Z,100823.00
2022-09-06T05:45:08.867Z,100840.41
2022-09-06T05:47:36.083Z,100831.97
2022-09-06T05:50:03.672Z,100830.88
2022-09-06T05:52:31.598Z,100841.75
2022-09-06T05:55:02.581Z,100844.25
2022-09-06T05:57:31.770Z,100832.50
2022-09-06T05:59:59.469Z,100844.09
2022-09-06T06:02:26.777Z,100858.16
2022-09-06T06:04:54.766Z,100844.88
2022-09-06T06:07:22.222Z,100848.31
2022-09-06T06:09:49.679Z,100850.94
2022-09-06T06:12:17.897Z,100847.16
2022-09-06T06:14:45.224Z,100852.97
2022-09-06T06:17:12.424Z,100855.31
2022-09-06T06:19:40.352Z,100837.97
2022-09-06T06:22:07.634Z,100855.50
2022-09-06T06:24:35.341Z,100856.34
2022-09-06T06:27:02.743Z,100845.75
2022-09-06T06:29:30.291Z,100832.00
2022-09-06T06:31:57.657Z,100833.47
2022-09-06T06:34:24.899Z,100855.19
2022-09-06T06:36:52.392Z,100871.59
2022-09-06T06:39:19.636Z,100842.94
2022-09-06T06:41:48.431Z,100836.66
2022-09-06T06:44:34.616Z,100870.75
2022-09-06T06:47:02.852Z,100857.00
2022-09-06T06:49:30.341Z,100841.41
2022-09-06T06:51:57.834Z,100869.25
2022-09-06T06:54:25.138Z,100859.81
2022-09-06T06:56:52.350Z,100842.94
2022-09-06T06:59:20.969Z,100868.59
2022-09-06T07:01:50.891Z,100857.34
2022-09-06T07:04:18.238Z,100850.38
2022-09-06T07:12:30.853Z,100840.25
2022-09-06T07:14:58.151Z,100858.78
2022-09-06T07:17:25.333Z,100840.69
2022-09-06T07:22:40.950Z,100861.25
2022-09-06T07:25:10.442Z,100859.97
2022-09-06T07:27:52.850Z,100852.84
2022-09-06T07:30:20.555Z,100859.44
2022-09-06T07:32:48.376Z,100859.41
2022-09-06T07:35:15.739Z,100852.03
2022-09-06T07:37:43.039Z,100842.34
2022-09-06T07:40:10.841Z,100847.78
2022-09-06T07:42:38.313Z,100848.69
2022-09-06T07:45:06.467Z,100845.66
2022-09-06T07:53:14.990Z,100843.94
2022-09-06T07:55:45.416Z,100835.22
2022-09-06T07:58:12.665Z,100835.84
2022-09-06T08:00:41.634Z,100828.25
2022-09-06T08:03:09.857Z,100837.28
2022-09-06T08:11:14.202Z,100833.06
2022-09-06T08:13:42.501Z,100819.97
2022-09-06T08:16:12.062Z,100823.16
2022-09-06T08:18:39.804Z,100815.84
2022-09-06T08:21:12.441Z,100821.47
2022-09-06T08:23:44.989Z,100813.75
2022-09-06T08:26:13.084Z,100807.69
2022-09-06T08:28:40.573Z,100806.16
2022-09-06T08:31:13.507Z,100807.97
2022-09-06T08:33:41.690Z,100787.03
2022-09-06T08:36:11.247Z,100791.50
2022-09-06T08:38:40.098Z,100799.41
2022-09-06T08:41:28.054Z,100814.50
2022-09-06T08:47:01.361Z,100794.22
2022-09-06T08:49:36.925Z,100774.97
2022-09-06T08:52:30.191Z,100782.09
2022-09-06T08:55:03.376Z,100773.75
2022-09-06T08:58:08.066Z,100798.81
2022-09-06T09:00:38.075Z,100795.31
2022-09-06T09:03:16.526Z,100776.63
2022-09-06T09:05:49.779Z,100763.94
2022-09-06T09:08:37.164Z,100786.34
2022-09-06T09:11:07.776Z,100794.94
2022-09-06T09:14:04.502Z,100796.50
2022-09-06T09:16:32.410Z,100785.91
2022-09-06T09:19:03.743Z,100770.78
2022-09-06T09:21:38.416Z,100756.66
2022-09-06T09:24:08.630Z,100776.44
2022-09-06T09:26:51.302Z,100772.34
2022-09-06T09:29:20.863Z,100767.09
2022-09-06T09:31:54.453Z,100767.25
2022-09-06T09:34:39.965Z,100761.06
2022-09-06T09:40:27.269Z,100752.28
2022-09-06T09:43:09.287Z,100760.78
2022-09-06T09:45:36.450Z,100754.81
2022-09-06T09:48:25.390Z,100749.72
2022-09-06T09:50:53.313Z,100747.72
2022-09-06T09:53:22.506Z,100755.16
2022-09-06T09:55:57.973Z,100757.03
2022-09-06T09:58:35.986Z,100775.59
2022-09-06T10:01:20.581Z,100770.03
2022-09-06T10:09:33.856Z,100760.28
2022-09-06T10:12:01.899Z,100774.28
2022-09-06T10:14:33.269Z,100759.53
2022-09-06T10:17:01.253Z,100768.09
2022-09-06T10:19:43.013Z,100762.16
2022-09-06T10:22:22.561Z,100755.41
2022-09-06T10:25:11.966Z,100768.06
2022-09-06T10:28:08.157Z,100769.13
2022-09-06T10:31:00.798Z,100771.59
2022-09-06T10:33:41.649Z,100758.63
2022-09-06T10:36:09.219Z,100766.28
2022-09-06T10:39:03.890Z,100758.59
2022-09-06T10:41:42.745Z,100763.34
2022-09-06T10:44:39.333Z,100775.81
2022-09-06T10:47:13.648Z,100757.19
2022-09-06T10:49:54.607Z,100765.91
2022-09-06T10:52:43.856Z,100781.22
2022-09-06T10:55:17.118Z,100790.75
2022-09-06T11:00:47.550Z,100776.47
2022-09-06T11:03:57.000Z,100783.53
2022-09-06T11:06:33.309Z,100774.56
2022-09-06T11:09:17.205Z,100781.78
2022-09-06T11:12:09.536Z,100778.34
2022-09-06T11:14:38.223Z,100781.31
2022-09-06T11:17:19.105Z,100780.56
2022-09-06T11:19:53.757Z,100783.03
2022-09-06T11:22:45.067Z,100762.94
2022-09-06T11:25:46.907Z,100764.97
2022-09-06T11:28:19.548Z,100763.25
2022-09-06T11:30:50.616Z,100744.91
2022-09-06T11:33:30.647Z,100765.88
2022-09-06T11:36:18.762Z,100758.94
2022-09-06T11:39:00.723Z,100760.31
2022-09-06T11:41:32.931Z,100764.31
2022-09-06T11:44:00.887Z,100746.00
2022-09-06T11:46:34.375Z,100754.44
2022-09-06T11:49:32.081Z,100755.94
2022-09-06T11:51:59.793Z,100761.06
2022-09-06T11:54:51.466Z,100760.84
2022-09-06T11:57:23.317Z,100734.28
2022-09-06T12:00:02.016Z,100751.06
2022-09-06T12:02:38.136Z,100758.50
2022-09-06T12:05:07.699Z,100763.31
2022-09-06T12:07:58.780Z,100750.03
2022-09-06T12:10:32.341Z,100751.50
2022-09-06T12:13:00.232Z,100766.00
2022-09-06T12:15:30.369Z,100754.50
2022-09-06T12:17:59.723Z,100756.81
2022-09-06T12:20:48.457Z,100770.75
2022-09-06T12:23:37.449Z,100759.16
2022-09-06T12:26:09.412Z,100766.97
2022-09-06T12:28:55.472Z,100747.31
2022-09-06T12:31:38.768Z,100752.56
2022-09-06T12:34:21.754Z,100742.03
2022-09-06T12:36:56.478Z,100734.59
2022-09-06T12:39:24.628Z,100755.47
2022-09-06T12:42:01.243Z,100732.78
2022-09-06T12:44:50.160Z,100770.91
2022-09-06T12:47:20.581Z,100780.91
2022-09-06T12:49:48.071Z,100742.06
2022-09-06T12:52:19.635Z,100758.31
2022-09-06T12:54:49.897Z,100773.47
2022-09-06T12:57:23.274Z,100755.16
2022-09-06T12:59:56.595Z,100759.69
2022-09-06T13:02:44.004Z,100764.97
2022-09-06T13:05:13.412Z,100747.09
2022-09-06T13:07:45.913Z,100750.59
2022-09-06T13:10:17.977Z,100750.69
2022-09-06T13:12:49.238Z,100748.59
2022-09-06T13:15:25.605Z,100765.00
2022-09-06T13:17:54.745Z,100732.41
2022-09-06T13:20:24.994Z,100746.19
2022-09-06T13:22:52.660Z,100736.81
2022-09-06T13:25:20.893Z,100735.75
2022-09-06T13:27:51.360Z,100744.03
2022-09-06T13:30:49.522Z,100739.34
2022-09-06T13:33:26.808Z,100750.22
2022-09-06T13:36:12.267Z,100749.66
2022-09-06T13:38:42.773Z,100749.53
2022-09-06T13:41:25.248Z,100744.84
2022-09-06T13:44:08.062Z,100737.28
2022-09-06T13:46:39.310Z,100738.25
2022-09-06T13:49:06.616Z,100732.09
2022-09-06T13:51:34.640Z,100719.28
2022-09-06T13:54:14.286Z,100731.53
2022-09-06T13:56:45.106Z,100725.41
2022-09-06T13:59:12.969Z,100731.66
2022-09-06T14:01:43.052Z,100722.84
2022-09-06T14:04:15.749Z,100721.19
2022-09-06T14:06:43.114Z,100735.19
2022-09-06T14:09:10.543Z,100728.81
2022-09-06T14:11:39.058Z,100729.75
2022-09-06T14:14:06.366Z,100737.19
2022-09-06T14:16:34.603Z,100734.72
2022-09-06T14:19:04.016Z,100740.94
2022-09-06T14:21:33.182Z,100727.75
2022-09-06T14:24:04.174Z,100726.78
2022-09-06T14:26:33.468Z,100739.13
2022-09-06T14:29:00.825Z,100723.69
2022-09-06T14:31:29.635Z,100736.56
2022-09-06T14:33:57.520Z,100732.44
2022-09-06T14:36:27.156Z,100753.69
2022-09-06T14:38:55.094Z,100743.03
2022-09-06T14:41:22.384Z,100748.38
2022-09-06T14:43:52.348Z,100740.41
2022-09-06T14:46:22.231Z,100740.19
2022-09-06T14:49:04.433Z,100758.66
2022-09-06T14:51:32.178Z,100749.56
2022-09-06T14:54:04.558Z,100751.91
2022-09-06T14:56:32.044Z,100748.25
2022-09-06T14:59:00.188Z,100741.63
2022-09-06T15:01:33.052Z,100762.59
2022-09-06T15:04:05.636Z,100741.25
2022-09-06T15:06:37.264Z,100769.13
2022-09-06T15:09:05.784Z,100753.84
2022-09-06T15:11:34.796Z,100746.25
2022-09-06T15:14:04.162Z,100745.28
2022-09-06T15:16:33.617Z,100744.19
2022-09-06T15:19:03.292Z,100747.16
2022-09-06T15:21:31.457Z,100745.50
2022-09-06T15:24:00.471Z,100736.69
2022-09-06T15:26:27.861Z,100744.94
2022-09-06T15:28:55.213Z,100750.66
2022-09-06T15:31:23.181Z,100738.13
2022-09-06T15:33:52.043Z,100754.31
2022-09-06T15:36:20.157Z,100753.63
2022-09-06T15:38:49.868Z,100741.84
2022-09-06T15:41:25.516Z,100741.66
2022-09-06T15:44:00.003Z,100748.94
2022-09-06T15:46:41.530Z,100745.50
2022-09-06T15:49:11.411Z,100755.84
2022-09-06T15:51:40.499Z,100745.41
2022-09-06T15:54:08.315Z,100750.03
2022-09-06T15:56:36.691Z,100748.72
2022-09-06T15:59:05.529Z,100750.84
2022-09-06T16:01:36.699Z,100764.34
2022-09-06T16:04:06.980Z,100760.09
2022-09-06T16:06:42.745Z,100762.34
2022-09-06T16:09:14.805Z,100762.84
2022-09-06T16:11:42.419Z,100765.75
2022-09-06T16:14:12.364Z,100771.59
2022-09-06T16:16:40.655Z,100769.88
2022-09-06T16:19:08.506Z,100771.06
2022-09-06T16:21:38.416Z,100778.56
2022-09-06T16:24:08.547Z,100781.28
2022-09-06T16:26:44.101Z,100785.53
2022-09-06T16:29:13.154Z,100790.94
2022-09-06T16:31:41.541Z,100800.31
2022-09-06T16:34:10.051Z,100810.53
2022-09-06T16:36:37.597Z,100787.72
2022-09-06T16:39:05.841Z,100807.13
2022-09-06T16:41:45.090Z,100816.75
2022-09-06T16:44:17.059Z,100825.13
2022-09-06T16:46:47.140Z,100815.88
2022-09-06T16:49:17.205Z,100817.88
2022-09-06T16:51:45.903Z,100824.34
2022-09-06T16:54:14.177Z,100821.91
2022-09-06T16:56:41.900Z,100820.22
2022-09-06T16:59:11.032Z,100823.03
2022-09-06T17:01:41.772Z,100826.03
2022-09-06T17:04:10.182Z,100836.00
2022-09-06T17:06:44.498Z,100828.22
2022-09-06T17:09:14.310Z,100831.53
2022-09-06T17:11:41.699Z,100815.50
2022-09-06T17:14:09.520Z,100841.81
2022-09-06T17:16:55.644Z,100844.47
2022-09-06T17:19:23.186Z,100839.88
2022-09-06T17:21:50.693Z,100846.19
2022-09-06T17:24:17.950Z,100839.75
2022-09-06T17:26:45.257Z,100852.19
2022-09-06T17:29:12.900Z,100840.25
2022-09-06T17:31:40.817Z,100849.38
2022-09-06T17:34:08.185Z,100848.69
2022-09-06T17:36:36.611Z,100833.13
2022-09-06T17:39:09.089Z,100851.31
2022-09-06T17:41:50.196Z,100848.19
2022-09-06T17:44:19.523Z,100856.00
2022-09-06T17:47:08.988Z,100863.44
2022-09-06T17:49:35.579Z,100851.34
2022-09-06T17:52:03.098Z,100861.47
2022-09-06T17:54:31.931Z,100856.66
2022-09-06T17:56:59.609Z,100858.31
2022-09-06T17:59:28.620Z,100869.41
2022-09-06T18:01:59.103Z,100851.88
2022-09-06T18:04:26.409Z,100861.81
2022-09-06T18:06:54.077Z,100857.34
2022-09-06T18:09:21.688Z,100862.16
2022-09-06T18:11:49.298Z,100856.66
2022-09-06T18:14:21.075Z,100878.88
2022-09-06T18:16:51.124Z,100869.59
2022-09-06T18:19:19.221Z,100868.25
2022-09-06T18:21:47.534Z,100868.25
2022-09-06T18:24:15.100Z,100877.53
2022-09-06T18:26:43.271Z,100880.53
2022-09-06T18:29:13.673Z,100876.53
2022-09-06T18:31:41.678Z,100870.09
2022-09-06T18:34:10.748Z,100861.31
2022-09-06T18:36:39.305Z,100875.22
2022-09-06T18:39:07.019Z,100865.97
2022-09-06T18:41:53.910Z,100865.63
2022-09-06T18:44:21.812Z,100871.09
2022-09-06T18:46:49.471Z,100876.56
2022-09-06T18:49:17.607Z,100869.28
2022-09-06T18:51:45.732Z,100857.19
2022-09-06T18:54:13.841Z,100868.78
2022-09-06T18:56:42.829Z,100878.38
2022-09-06T18:59:13.921Z,100884.69
2022-09-06T19:01:42.954Z,100885.66
2022-09-06T19:04:11.658Z,100897.91
2022-09-06T19:06:41.185Z,100893.94
2022-09-06T19:09:11.950Z,100881.34
2022-09-06T19:11:41.972Z,100893.31
2022-09-06T19:14:09.828Z,100886.16
2022-09-06T19:16:37.100Z,100888.47
2022-09-06T19:19:06.782Z,100898.25
2022-09-06T19:21:39.347Z,100890.78
2022-09-06T19:24:10.474Z,100893.59
2022-09-06T19:26:40.784Z,100904.53
2022-09-06T19:29:13.286Z,100890.41
2022-09-06T19:31:41.586Z,100888.59
2022-09-06T19:34:08.944Z,100902.72
2022-09-06T19:36:36.552Z,100899.84
2022-09-06T19:39:06.964Z,100902.47
2022-09-06T19:41:38.030Z,100904.97
2022-09-06T19:44:07.896Z,100902.31
2022-09-06T19:46:35.548Z,100901.63
2022-09-06T19:49:03.841Z,100905.91
2022-09-06T19:51:31.773Z,100916.31
2022-09-06T19:54:00.123Z,100907.38
2022-09-06T19:56:33.831Z,100911.69
2022-09-06T19:59:04.428Z,100909.88
2022-09-06T20:01:33.664Z,100909.03
2022-09-06T20:04:03.557Z,100912.50
2022-09-06T20:06:31.658Z,100915.63
2022-09-06T20:09:00.158Z,100905.53
2022-09-06T20:11:30.120Z,100906.53
2022-09-06T20:13:57.855Z,100907.69
2022-09-06T20:16:25.915Z,100913.00
2022-09-06T20:18:59.196Z,100906.88
2022-09-06T20:21:30.007Z,100912.31
2022-09-06T20:23:59.442Z,100907.34
2022-09-06T20:26:29.247Z,100912.91
2022-09-06T20:28:58.709Z,100910.78
2022-09-06T20:31:29.232Z,100905.94
2022-09-06T20:33:58.494Z,100913.16
2022-09-06T20:36:26.020Z,100914.91
2022-09-06T20:38:53.547Z,100910.44
2022-09-06T20:41:23.912Z,100910.38
2022-09-06T20:43:56.854Z,100908.09
2022-09-06T20:46:26.501Z,100915.19
2022-09-06T20:48:56.939Z,100924.59
2022-09-06T20:51:25.507Z,100925.44
2022-09-06T20:53:55.545Z,100917.22
2022-09-06T20:56:25.750Z,100927.63
2022-09-06T20:59:00.944Z,100916.69
2022-09-06T21:01:31.468Z,100914.72
2022-09-06T21:04:00.679Z,100916.50
2022-09-06T21:06:31.027Z,100928.25
2022-09-06T21:08:58.393Z,100915.03
2022-09-06T21:11:25.839Z,100906.09
2022-09-06T21:13:56.219Z,100925.56
2022-09-06T21:16:26.110Z,100927.06
2022-09-06T21:18:55.527Z,100921.78
2022-09-06T21:21:23.928Z,100910.47
2022-09-06T21:23:51.294Z,100922.44
2022-09-06T21:26:19.270Z,100926.03
2022-09-06T21:28:47.900Z,100933.56
2022-09-06T21:31:27.013Z,100933.34
2022-09-06T21:33:57.009Z,100931.44
2022-09-06T21:36:32.042Z,100928.00
2022-09-06T21:39:00.480Z,100924.81
2022-09-06T21:41:28.951Z,100928.31
2022-09-06T21:43:58.640Z,100937.38
2022-09-06T21:46:34.997Z,100924.28
2022-09-06T21:49:04.591Z,100930.31
2022-09-06T21:51:32.773Z,100925.78
2022-09-06T21:54:05.683Z,100918.63
2022-09-06T21:56:36.050Z,100915.00
2022-09-06T21:59:04.986Z,100928.50
2022-09-06T22:01:34.213Z,100924.44
2022-09-06T22:04:02.516Z,100932.88
2022-09-06T22:06:33.525Z,100929.53
2022-09-06T22:09:03.529Z,100934.53
2022-09-06T22:11:33.124Z,100938.47
2022-09-06T22:14:02.915Z,100932.97
2022-09-06T22:16:33.133Z,100943.81
2022-09-06T22:19:00.973Z,100938.53
2022-09-06T22:21:28.249Z,100929.19
2022-09-06T22:23:58.221Z,100930.66
2022-09-06T22:26:27.356Z,100935.22
2022-09-06T22:28:58.368Z,100936.47
2022-09-06T22:31:27.576Z,100922.75
2022-09-06T22:33:56.281Z,100936.47
2022-09-06T22:36:24.326Z,100922.97
2022-09-06T22:38:56.526Z,100921.31
2022-09-06T22:41:25.627Z,100927.13
2022-09-06T22:43:53.105Z,100913.94
2022-09-06T22:46:21.032Z,100926.69
2022-09-06T22:48:49.483Z,100907.66
2022-09-06T22:51:17.267Z,100936.13
2022-09-06T22:53:45.308Z,100936.63
2022-09-06T22:56:12.942Z,100924.06
2022-09-06T22:58:40.304Z,100923.84
2022-09-06T23:01:13.342Z,100925.13
2022-09-06T23:03:42.028Z,100914.31
2022-09-06T23:06:10.141Z,100921.25
2022-09-06T23:08:39.127Z,100928.53
2022-09-06T23:11:18.043Z,100928.09
2022-09-06T23:13:47.469Z,100933.31
2022-09-06T23:16:17.929Z,100934.97
2022-09-06T23:18:46.335Z,100930.19
2022-09-06T23:21:16.545Z,100912.72
2022-09-06T23:23:44.459Z,100931.03
2022-09-06T23:26:15.771Z,100929.97
2022-09-06T23:28:43.805Z,100924.91
2022-09-06T23:31:13.360Z,100936.00
2022-09-06T23:33:41.938Z,100936.19
2022-09-06T23:36:12.261Z,100936.00
2022-09-06T23:38:41.584Z,100929.75
2022-09-06T23:41:10.442Z,100934.97
2022-09-06T23:43:38.922Z,100932.84
2022-09-06T23:46:07.310Z,100934.00
2022-09-06T23:48:35.388Z,100939.28
2022-09-06T23:51:03.038Z,100932.41
2022-09-06T23:53:30.395Z,100937.19
2022-09-06T23:55:58.382Z,100919.13
2022-09-06T23:58:25.967Z,100931.94
